createdAt,value
2023-03-21T00:00:42.782Z,93.80
2023-03-21T00:03:09.529Z,93.07
2023-03-21T00:05:43.101Z,94.00
2023-03-21T00:08:09.874Z,93.56
2023-03-21T00:10:43.464Z,93.61
2023-03-21T00:13:15.055Z,93.35
2023-03-21T00:16:08.333Z,94.38
2023-03-21T00:18:42.594Z,94.98
2023-03-21T00:23:59.726Z,96.32
2023-03-21T00:26:26.928Z,96.06
2023-03-21T00:28:53.458Z,97.31
2023-03-21T00:31:20.945Z,98.50
2023-03-21T00:33:49.582Z,97.04
2023-03-21T00:36:16.426Z,99.61
2023-03-21T00:38:43.411Z,99.27
2023-03-21T00:41:23.409Z,99.34
2023-03-21T00:43:58.242Z,100.00
2023-03-21T00:46:27.627Z,100.00
2023-03-21T00:48:56.967Z,100.00
2023-03-21T00:51:27.090Z,100.00
2023-03-21T00:53:56.075Z,100.00
2023-03-21T00:56:22.878Z,100.00
2023-03-21T00:58:49.806Z,100.00
2023-03-21T01:01:16.874Z,100.00
2023-03-21T01:03:50.882Z,100.00
2023-03-21T01:06:19.764Z,100.00
2023-03-21T01:08:52.716Z,100.00
2023-03-21T01:11:24.703Z,100.00
2023-03-21T01:13:57.795Z,100.00
2023-03-21T01:16:28.886Z,100.00
2023-03-21T01:18:56.223Z,100.00
2023-03-21T01:21:23.173Z,100.00
2023-03-21T01:23:49.747Z,100.00
2023-03-21T01:26:16.427Z,100.00
2023-03-21T01:28:45.376Z,100.00
2023-03-21T01:31:15.765Z,100.00
2023-03-21T01:33:43.093Z,100.00
2023-03-21T01:36:15.905Z,100.00
2023-03-21T01:38:43.970Z,100.00
2023-03-21T01:41:36.645Z,100.00
2023-03-21T01:44:19.063Z,100.00
2023-03-21T01:47:07.370Z,100.00
2023-03-21T01:49:49.695Z,100.00
2023-03-21T01:52:37.669Z,100.00
2023-03-21T01:55:12.779Z,100.00
2023-03-21T01:58:06.840Z,100.00
2023-03-21T02:00:55.143Z,100.00
2023-03-21T02:03:38.358Z,100.00
2023-03-21T02:06:35.329Z,100.00
2023-03-21T02:09:33.591Z,100.00
2023-03-21T02:12:01.446Z,100.00
2023-03-21T02:14:33.939Z,100.00
2023-03-21T02:17:15.065Z,100.00
2023-03-21T02:20:17.901Z,100.00
2023-03-21T02:22:56.956Z,100.00
2023-03-21T02:26:01.806Z,100.00
2023-03-21T02:28:41.798Z,100.00
2023-03-21T02:31:35.802Z,100.00
2023-03-21T02:34:17.806Z,100.00
2023-03-21T02:37:05.626Z,100.00
2023-03-21T02:39:45.185Z,99.81
2023-03-21T02:42:37.958Z,100.00
2023-03-21T02:45:19.324Z,100.00
2023-03-21T02:48:00.621Z,100.00
2023-03-21T02:50:37.518Z,100.00
2023-03-21T02:53:08.420Z,99.77
2023-03-21T02:55:37.472Z,100.00
2023-03-21T02:58:13.236Z,99.14
2023-03-21T03:00:47.417Z,99.24
2023-03-21T03:03:33.332Z,98.04
2023-03-21T03:06:03.952Z,98.18
2023-03-21T03:09:02.309Z,98.36
2023-03-21T03:11:43.081Z,97.70
2023-03-21T03:14:31.583Z,97.53
2023-03-21T03:17:28.538Z,97.05
2023-03-21T03:20:32.567Z,97.69
2023-03-21T03:23:25.292Z,96.88
2023-03-21T03:26:08.975Z,96.31
2023-03-21T03:28:45.828Z,97.28
2023-03-21T03:31:25.798Z,97.72
2023-03-21T03:34:02.164Z,97.36
2023-03-21T03:36:36.857Z,97.28
2023-03-21T03:39:11.198Z,96.79
2023-03-21T03:42:12.573Z,96.00
2023-03-21T03:44:37.853Z,95.25
2023-03-21T03:47:06.203Z,95.12
2023-03-21T03:49:41.922Z,95.23
2023-03-21T03:52:17.352Z,95.74
2023-03-21T03:54:49.482Z,95.20
2023-03-21T03:57:16.688Z,94.81
2023-03-21T03:59:45.732Z,95.80
2023-03-21T04:02:21.830Z,95.77
2023-03-21T04:04:52.951Z,95.38
2023-03-21T04:07:22.255Z,94.83
2023-03-21T04:09:51.903Z,94.05
2023-03-21T04:12:20.475Z,93.73
2023-03-21T04:15:10.859Z,93.66
2023-03-21T04:17:41.833Z,93.13
2023-03-21T04:20:13.059Z,92.85
2023-03-21T04:22:43.704Z,93.73
2023-03-21T04:25:10.909Z,93.44
2023-03-21T04:27:37.835Z,93.82
2023-03-21T04:30:27.863Z,94.07
2023-03-21T04:33:04.979Z,93.15
2023-03-21T04:35:37.061Z,93.48
2023-03-21T04:38:05.504Z,94.41
2023-03-21T04:40:32.173Z,94.49
2023-03-21T04:43:01.177Z,94.48
2023-03-21T04:45:28.433Z,94.19
2023-03-21T04:47:55.887Z,93.92
2023-03-21T04:50:22.520Z,94.89
2023-03-21T04:52:49.129Z,94.45
2023-03-21T04:55:15.937Z,94.50
2023-03-21T04:57:42.643Z,94.40
2023-03-21T05:00:18.628Z,93.75
2023-03-21T05:02:46.125Z,93.62
2023-03-21T05:05:13.534Z,94.29
2023-03-21T05:07:41.255Z,94.92
2023-03-21T05:10:12.116Z,94.54
2023-03-21T05:12:41.376Z,94.67
2023-03-21T05:15:09.081Z,94.54
2023-03-21T05:17:36.627Z,95.82
2023-03-21T05:20:04.713Z,94.81
2023-03-21T05:22:40.807Z,96.55
2023-03-21T05:25:12.209Z,95.87
2023-03-21T05:28:03.493Z,96.23
2023-03-21T05:30:31.349Z,97.04
2023-03-21T05:33:00.524Z,97.22
2023-03-21T05:35:27.578Z,96.26
2023-03-21T05:37:57.010Z,97.33
2023-03-21T05:40:25.128Z,97.29
2023-03-21T05:42:55.524Z,96.19
2023-03-21T05:45:23.267Z,96.16
2023-03-21T05:47:51.521Z,98.02
2023-03-21T05:50:20.759Z,98.19
2023-03-21T05:53:00.878Z,97.08
2023-03-21T05:55:28.031Z,96.61
2023-03-21T05:57:56.554Z,96.68
2023-03-21T06:00:27.956Z,95.87
2023-03-21T06:03:18.585Z,95.43
2023-03-21T06:05:58.773Z,95.38
2023-03-21T06:08:32.736Z,95.58
2023-03-21T06:11:00.147Z,95.59
2023-03-21T06:13:26.864Z,96.32
2023-03-21T06:15:53.679Z,95.50
2023-03-21T06:18:23.846Z,96.01
2023-03-21T06:20:58.926Z,96.90
2023-03-21T06:23:25.770Z,96.89
2023-03-21T06:25:53.324Z,95.86
2023-03-21T06:28:20.472Z,95.78
2023-03-21T06:30:47.017Z,96.33
2023-03-21T06:33:18.667Z,96.19
2023-03-21T06:35:50.353Z,95.68
2023-03-21T06:38:17.531Z,96.42
2023-03-21T06:40:46.935Z,95.79
2023-03-21T06:43:14.297Z,96.67
2023-03-21T06:45:40.991Z,96.09
2023-03-21T06:48:10.380Z,95.47
2023-03-21T06:50:44.605Z,96.19
2023-03-21T06:53:11.161Z,95.93
2023-03-21T06:55:57.649Z,96.96
2023-03-21T06:58:24.665Z,95.97
2023-03-21T07:00:51.341Z,95.14
2023-03-21T07:03:19.185Z,95.46
2023-03-21T07:05:46.773Z,94.90
2023-03-21T07:08:15.287Z,94.46
2023-03-21T07:10:45.420Z,94.20
2023-03-21T07:13:13.446Z,93.94
2023-03-21T07:16:02.766Z,95.10
2023-03-21T07:18:30.878Z,95.15
2023-03-21T07:20:57.477Z,95.06
2023-03-21T07:23:25.873Z,95.58
2023-03-21T07:25:54.126Z,95.15
2023-03-21T07:28:21.053Z,94.79
2023-03-21T07:30:57.466Z,96.10
2023-03-21T07:33:26.236Z,96.52
2023-03-21T07:35:57.858Z,97.08
2023-03-21T07:38:24.755Z,98.94
2023-03-21T07:40:51.755Z,100.00
2023-03-21T07:45:57.189Z,100.00
2023-03-21T07:48:23.908Z,100.00
2023-03-21T07:50:51.024Z,100.00
2023-03-21T07:53:17.832Z,100.00
2023-03-21T07:55:44.463Z,100.00
2023-03-21T07:58:11.095Z,100.00
2023-03-21T08:00:37.663Z,100.00
2023-03-21T08:03:04.368Z,100.00
2023-03-21T08:05:35.620Z,100.00
2023-03-21T08:08:02.601Z,100.00
2023-03-21T08:10:29.250Z,100.00
2023-03-21T08:12:55.947Z,100.00
2023-03-21T08:15:22.964Z,100.00
2023-03-21T08:17:49.735Z,100.00
2023-03-21T08:20:21.695Z,100.00
2023-03-21T08:22:49.507Z,100.00
2023-03-21T08:25:18.373Z,100.00
2023-03-21T08:27:46.601Z,100.00
2023-03-21T08:30:16.664Z,100.00
2023-03-21T08:32:43.667Z,100.00
2023-03-21T08:35:13.805Z,100.00
2023-03-21T08:37:42.425Z,100.00
2023-03-21T08:40:13.328Z,100.00
2023-03-21T08:42:41.688Z,100.00
2023-03-21T08:45:09.236Z,100.00
2023-03-21T08:47:35.972Z,100.00
2023-03-21T08:50:06.636Z,100.00
2023-03-21T08:52:33.805Z,100.00
2023-03-21T08:55:02.127Z,100.00
2023-03-21T08:57:29.188Z,100.00
2023-03-21T08:59:55.766Z,100.00
2023-03-21T09:02:22.519Z,100.00
2023-03-21T09:04:49.193Z,100.00
2023-03-21T09:07:18.003Z,100.00
2023-03-21T09:09:47.614Z,100.00
2023-03-21T09:12:17.333Z,100.00
2023-03-21T09:14:43.943Z,100.00
2023-03-21T09:17:10.593Z,100.00
2023-03-21T09:19:38.805Z,100.00
2023-03-21T09:22:05.993Z,100.00
2023-03-21T09:24:32.894Z,100.00
2023-03-21T09:26:59.501Z,100.00
2023-03-21T09:29:26.904Z,100.00
2023-03-21T09:31:53.857Z,100.00
2023-03-21T09:34:20.858Z,100.00
2023-03-21T09:36:48.505Z,100.00
2023-03-21T09:39:16.192Z,100.00
2023-03-21T09:42:00.969Z,100.00
2023-03-21T09:44:37.959Z,100.00
2023-03-21T09:47:34.705Z,100.00
2023-03-21T09:50:14.477Z,100.00
2023-03-21T09:53:07.273Z,100.00
2023-03-21T09:55:38.536Z,100.00
2023-03-21T09:58:20.461Z,100.00
2023-03-21T10:00:53.584Z,100.00
2023-03-21T10:03:24.487Z,100.00
2023-03-21T10:05:52.862Z,100.00
2023-03-21T10:08:27.443Z,100.00
2023-03-21T10:10:58.951Z,100.00
2023-03-21T10:13:32.188Z,100.00
2023-03-21T10:16:02.121Z,100.00
2023-03-21T10:18:31.733Z,100.00
2023-03-21T10:20:58.306Z,100.00
2023-03-21T10:23:29.781Z,100.00
2023-03-21T10:26:01.071Z,100.00
2023-03-21T10:28:49.919Z,100.00
2023-03-21T10:31:28.409Z,100.00
2023-03-21T10:33:57.811Z,100.00
2023-03-21T10:36:27.252Z,100.00
2023-03-21T10:38:57.245Z,100.00
2023-03-21T10:41:23.877Z,100.00
2023-03-21T10:44:14.470Z,100.00
2023-03-21T10:46:56.037Z,100.00
2023-03-21T10:49:23.344Z,100.00
2023-03-21T10:51:52.850Z,100.00
2023-03-21T10:54:22.287Z,100.00
2023-03-21T10:57:00.960Z,100.00
2023-03-21T10:59:35.784Z,100.00
2023-03-21T11:02:04.328Z,100.00
2023-03-21T11:04:31.219Z,100.00
2023-03-21T11:07:07.435Z,100.00
2023-03-21T11:09:53.498Z,100.00
2023-03-21T11:12:39.683Z,100.00
2023-03-21T11:15:42.862Z,100.00
2023-03-21T11:18:26.009Z,100.00
2023-03-21T11:20:58.541Z,100.00
2023-03-21T11:23:28.808Z,100.00
2023-03-21T11:25:56.013Z,100.00
2023-03-21T11:28:28.541Z,100.00
2023-03-21T11:30:58.257Z,100.00
2023-03-21T11:33:36.565Z,100.00
2023-03-21T11:36:07.906Z,100.00
2023-03-21T11:38:39.839Z,100.00
2023-03-21T11:41:07.495Z,100.00
2023-03-21T11:43:39.289Z,100.00
2023-03-21T11:46:13.967Z,100.00
2023-03-21T11:48:43.901Z,100.00
2023-03-21T11:51:35.285Z,100.00
2023-03-21T11:54:14.225Z,100.00
2023-03-21T11:56:47.582Z,100.00
2023-03-21T11:59:23.211Z,100.00
2023-03-21T12:02:14.632Z,100.00
2023-03-21T12:04:47.037Z,100.00
2023-03-21T12:07:26.421Z,100.00
2023-03-21T12:10:09.100Z,100.00
2023-03-21T12:12:58.716Z,100.00
2023-03-21T12:16:13.916Z,100.00
2023-03-21T12:19:12.318Z,100.00
2023-03-21T12:22:21.318Z,100.00
2023-03-21T12:24:54.893Z,100.00
2023-03-21T12:27:43.182Z,100.00
2023-03-21T12:30:09.748Z,100.00
2023-03-21T12:33:08.711Z,100.00
2023-03-21T12:35:38.482Z,100.00
2023-03-21T12:38:39.448Z,100.00
2023-03-21T12:41:35.293Z,100.00
2023-03-21T12:44:10.350Z,100.00
2023-03-21T12:46:52.764Z,100.00
2023-03-21T12:49:42.995Z,100.00
2023-03-21T12:52:16.505Z,100.00
2023-03-21T12:54:51.146Z,100.00
2023-03-21T12:57:32.680Z,100.00
2023-03-21T13:00:10.724Z,100.00
2023-03-21T13:02:59.946Z,100.00
2023-03-21T13:05:32.880Z,100.00
2023-03-21T13:08:22.729Z,100.00
2023-03-21T13:10:49.502Z,100.00
2023-03-21T13:13:27.030Z,100.00
2023-03-21T13:16:27.808Z,100.00
2023-03-21T13:19:20.815Z,100.00
2023-03-21T13:22:09.092Z,100.00
2023-03-21T13:24:47.145Z,100.00
2023-03-21T13:27:29.496Z,100.00
2023-03-21T13:30:17.827Z,100.00
2023-03-21T13:32:48.407Z,100.00
2023-03-21T13:35:19.779Z,100.00
2023-03-21T13:37:53.385Z,100.00
2023-03-21T13:40:23.489Z,100.00
2023-03-21T13:42:57.021Z,100.00
2023-03-21T13:45:28.806Z,100.00
2023-03-21T13:47:58.544Z,100.00
2023-03-21T13:50:29.498Z,100.00
2023-03-21T13:53:02.022Z,100.00
2023-03-21T13:55:30.841Z,100.00
2023-03-21T13:57:57.428Z,100.00
2023-03-21T14:00:30.880Z,100.00
2023-03-21T14:03:09.793Z,100.00
2023-03-21T14:05:37.599Z,100.00
2023-03-21T14:08:21.590Z,100.00
2023-03-21T14:10:59.689Z,100.00
2023-03-21T14:13:27.722Z,100.00
2023-03-21T14:16:00.911Z,100.00
2023-03-21T14:18:52.316Z,100.00
2023-03-21T14:21:25.494Z,100.00
2023-03-21T14:24:06.457Z,100.00
2023-03-21T14:26:36.186Z,100.00
2023-03-21T14:29:22.853Z,100.00
2023-03-21T14:31:51.644Z,100.00
2023-03-21T14:34:18.552Z,100.00
2023-03-21T14:36:56.901Z,100.00
2023-03-21T14:39:28.868Z,100.00
2023-03-21T14:42:02.158Z,100.00
2023-03-21T14:44:53.479Z,100.00
2023-03-21T14:47:21.242Z,100.00
2023-03-21T14:49:49.359Z,100.00
2023-03-21T14:52:26.390Z,100.00
2023-03-21T14:54:55.260Z,100.00
2023-03-21T14:57:25.680Z,100.00
2023-03-21T14:59:54.827Z,100.00
2023-03-21T15:02:26.767Z,100.00
2023-03-21T15:04:57.150Z,100.00
2023-03-21T15:07:33.507Z,100.00
2023-03-21T15:10:21.709Z,99.62
2023-03-21T15:13:12.642Z,100.00
2023-03-21T15:15:40.530Z,99.81
2023-03-21T15:18:08.676Z,97.91
2023-03-21T15:20:38.074Z,98.05
2023-03-21T15:23:15.630Z,98.06
2023-03-21T15:25:43.145Z,97.60
2023-03-21T15:28:13.858Z,98.66
2023-03-21T15:30:49.115Z,97.02
2023-03-21T15:33:16.468Z,97.77
2023-03-21T15:35:46.130Z,96.13
2023-03-21T15:38:39.900Z,95.56
2023-03-21T15:41:21.600Z,95.71
2023-03-21T15:44:09.106Z,94.28
2023-03-21T15:46:50.459Z,93.64
2023-03-21T15:49:32.881Z,93.20
2023-03-21T15:52:15.716Z,92.94
2023-03-21T15:54:44.088Z,91.39
2023-03-21T15:57:24.052Z,91.91
2023-03-21T15:59:55.848Z,91.38
2023-03-21T16:02:25.217Z,90.68
2023-03-21T16:05:23.892Z,89.87
2023-03-21T16:07:50.616Z,89.30
2023-03-21T16:10:29.531Z,88.62
2023-03-21T16:12:56.299Z,88.66
2023-03-21T16:15:25.742Z,89.80
2023-03-21T16:18:01.925Z,89.59
2023-03-21T16:20:34.170Z,90.66
2023-03-21T16:23:01.561Z,91.07
2023-03-21T16:25:30.015Z,90.64
2023-03-21T16:27:57.078Z,89.92
2023-03-21T16:30:24.035Z,90.66
2023-03-21T16:32:51.449Z,88.81
2023-03-21T16:35:18.670Z,88.71
2023-03-21T16:37:47.999Z,88.68
2023-03-21T16:40:31.559Z,88.41
2023-03-21T16:42:58.180Z,88.83
2023-03-21T16:45:25.051Z,88.57
2023-03-21T16:47:51.991Z,89.58
2023-03-21T16:50:25.212Z,88.27
2023-03-21T16:52:52.241Z,88.96
2023-03-21T16:55:19.817Z,89.17
2023-03-21T16:57:47.032Z,88.63
2023-03-21T17:00:20.530Z,89.40
2023-03-21T17:02:47.986Z,89.27
2023-03-21T17:05:15.029Z,89.44
2023-03-21T17:07:44.022Z,88.25
2023-03-21T17:10:15.339Z,90.16
2023-03-21T17:12:41.915Z,90.49
2023-03-21T17:15:09.511Z,89.95
2023-03-21T17:17:36.767Z,89.79
2023-03-21T17:20:15.057Z,89.49
2023-03-21T17:22:42.204Z,89.25
2023-03-21T17:25:09.074Z,89.46
2023-03-21T17:27:39.392Z,89.76
2023-03-21T17:30:27.561Z,90.17
2023-03-21T17:32:54.769Z,90.32
2023-03-21T17:35:23.444Z,90.43
2023-03-21T17:37:51.410Z,90.94
2023-03-21T17:40:24.802Z,91.20
2023-03-21T17:42:51.971Z,90.51
2023-03-21T17:45:20.002Z,90.92
2023-03-21T17:47:47.314Z,90.84
2023-03-21T17:50:18.856Z,90.94
2023-03-21T17:52:46.056Z,91.03
2023-03-21T17:55:14.719Z,90.70
2023-03-21T17:57:41.313Z,90.71
2023-03-21T18:00:14.215Z,90.92
2023-03-21T18:02:41.623Z,90.37
2023-03-21T18:05:09.537Z,90.90
2023-03-21T18:10:28.187Z,92.15
2023-03-21T18:12:58.319Z,92.09
2023-03-21T18:15:30.110Z,92.57
2023-03-21T18:17:57.666Z,92.96
2023-03-21T18:20:45.519Z,92.83
2023-03-21T18:23:14.291Z,92.35
2023-03-21T18:25:41.754Z,92.86
2023-03-21T18:28:11.972Z,92.70
2023-03-21T18:30:56.841Z,92.82
2023-03-21T18:33:27.266Z,92.87
2023-03-21T18:35:59.064Z,93.47
2023-03-21T18:38:27.735Z,93.18
2023-03-21T18:40:55.376Z,93.15
2023-03-21T18:46:09.196Z,93.72
2023-03-21T18:48:36.068Z,94.30
2023-03-21T18:51:03.689Z,93.97
2023-03-21T18:53:30.252Z,94.35
2023-03-21T18:55:57.492Z,95.05
2023-03-21T18:58:25.113Z,94.56
2023-03-21T19:00:53.539Z,95.28
2023-03-21T19:03:34.113Z,95.27
2023-03-21T19:06:03.915Z,95.16
2023-03-21T19:08:31.191Z,94.65
2023-03-21T19:11:00.139Z,94.77
2023-03-21T19:13:30.170Z,94.56
2023-03-21T19:15:57.117Z,94.13
2023-03-21T19:18:41.676Z,94.42
2023-03-21T19:21:10.448Z,94.05
2023-03-21T19:24:15.154Z,94.08
2023-03-21T19:26:27.582Z,93.75
2023-03-21T19:28:54.704Z,94.26
2023-03-21T19:31:21.974Z,94.50
2023-03-21T19:33:48.721Z,94.60
2023-03-21T19:36:21.858Z,95.37
2023-03-21T19:38:49.224Z,96.02
2023-03-21T19:41:16.488Z,96.30
2023-03-21T19:43:53.779Z,96.71
2023-03-21T19:46:24.846Z,97.02
2023-03-21T19:48:56.307Z,97.64
2023-03-21T19:51:28.601Z,97.98
2023-03-21T19:53:56.539Z,98.63
2023-03-21T19:56:26.440Z,98.00
2023-03-21T19:58:55.210Z,98.60
2023-03-21T20:01:22.361Z,98.21
2023-03-21T20:03:49.149Z,97.30
2023-03-21T20:06:16.585Z,97.91
2023-03-21T20:09:27.626Z,98.31
2023-03-21T20:11:29.770Z,97.90
2023-03-21T20:13:56.563Z,99.39
2023-03-21T20:16:23.241Z,99.09
2023-03-21T20:18:50.028Z,98.63
2023-03-21T20:21:18.503Z,98.92
2023-03-21T20:23:50.834Z,98.47
2023-03-21T20:26:18.374Z,98.46
2023-03-21T20:29:01.095Z,98.71
2023-03-21T20:31:37.683Z,100.00
2023-03-21T20:34:04.456Z,99.25
2023-03-21T20:36:41.112Z,99.42
2023-03-21T20:39:09.454Z,99.45
2023-03-21T20:41:36.102Z,99.18
2023-03-21T20:46:49.930Z,100.00
2023-03-21T20:49:16.690Z,100.00
2023-03-21T20:54:30.269Z,100.00
2023-03-21T20:56:57.216Z,100.00
2023-03-21T20:59:27.761Z,99.88
2023-03-21T21:01:57.192Z,100.00
2023-03-21T21:04:44.346Z,100.00
2023-03-21T21:07:15.973Z,99.68
2023-03-21T21:09:45.324Z,99.20
2023-03-21T21:12:13.655Z,99.50
2023-03-21T21:14:41.254Z,99.30
2023-03-21T21:17:24.554Z,100.00
2023-03-21T21:19:55.328Z,99.82
2023-03-21T21:22:21.926Z,100.00
2023-03-21T21:24:48.539Z,99.77
2023-03-21T21:27:15.082Z,100.00
2023-03-21T21:29:43.395Z,99.99
2023-03-21T21:32:11.157Z,99.33
2023-03-21T21:34:38.052Z,99.59
2023-03-21T21:37:05.072Z,99.38
2023-03-21T21:39:35.133Z,99.60
2023-03-21T21:42:02.242Z,99.98
2023-03-21T21:44:28.791Z,100.00
2023-03-21T21:46:55.443Z,100.00
2023-03-21T21:49:22.052Z,100.00
2023-03-21T21:51:48.676Z,100.00
2023-03-21T21:54:18.232Z,99.40
2023-03-21T21:56:48.570Z,99.84
2023-03-21T21:59:21.930Z,100.00
2023-03-21T22:01:51.201Z,99.81
2023-03-21T22:04:27.558Z,99.32
2023-03-21T22:06:57.233Z,99.26
2023-03-21T22:09:23.930Z,99.27
2023-03-21T22:11:50.510Z,99.09
2023-03-21T22:14:17.195Z,99.08
2023-03-21T22:16:43.997Z,99.14
2023-03-21T22:19:10.711Z,99.16
2023-03-21T22:21:37.324Z,98.70
2023-03-21T22:24:04.151Z,98.60
2023-03-21T22:26:30.694Z,99.08
2023-03-21T22:28:58.374Z,100.00
2023-03-21T22:31:26.333Z,99.45
2023-03-21T22:33:53.066Z,99.33
2023-03-21T22:36:20.118Z,99.29
2023-03-21T22:38:47.811Z,99.36
2023-03-21T22:41:14.441Z,99.69
2023-03-21T22:43:43.036Z,100.00
2023-03-21T22:46:09.635Z,99.69
2023-03-21T22:48:36.246Z,98.65
2023-03-21T22:51:02.924Z,98.65
2023-03-21T22:53:29.783Z,98.64
2023-03-21T22:55:56.592Z,98.78
2023-03-21T22:58:23.594Z,98.05
2023-03-21T23:00:50.328Z,99.11
2023-03-21T23:03:17.053Z,98.19
2023-03-21T23:05:44.945Z,98.73
2023-03-21T23:08:12.874Z,98.70
2023-03-21T23:10:41.317Z,98.30
2023-03-21T23:13:08.103Z,98.72
2023-03-21T23:15:34.708Z,99.36
2023-03-21T23:18:01.385Z,99.33
2023-03-21T23:20:28.095Z,99.13
2023-03-21T23:22:54.878Z,99.09
2023-03-21T23:25:21.787Z,99.25
2023-03-21T23:27:48.382Z,99.62
2023-03-21T23:30:16.564Z,98.99
2023-03-21T23:32:43.168Z,99.39
2023-03-21T23:35:11.357Z,99.11
2023-03-21T23:37:38.178Z,98.94
2023-03-21T23:40:08.983Z,98.94
2023-03-21T23:42:36.892Z,98.55
2023-03-21T23:45:04.053Z,97.97
2023-03-21T23:47:31.041Z,97.92
2023-03-21T23:49:57.912Z,97.60
2023-03-21T23:52:24.483Z,98.93
2023-03-21T23:54:51.161Z,98.47
2023-03-21T23:57:17.990Z,98.68
2023-03-21T23:59:46.850Z,98.84
